Time;durP1;ratioP1;P1;durP2;ratioP2;P2;SDS_P1;SDS_P2;PMS_P1;PMS_P2;Temp;Humidity;BMP_temperature;BMP_pressure;BME280_temperature;BME280_humidity;BME280_pressure;Samples;Min_cycle;Max_cycle;Signal;HPM_P1;HPM_P2
2022/10/14 00:02:20;;;;;;;4.75;3.88;;;12.30;99.90;;;;;;4968544;28;20033;-81
2022/10/14 00:04:48;;;;;;;4.07;3.33;;;12.40;99.90;;;;;;4985921;28;20027;-81
2022/10/14 00:07:16;;;;;;;4.30;3.80;;;12.40;99.90;;;;;;4985797;28;20035;-83
2022/10/14 00:09:41;;;;;;;4.55;3.70;;;12.40;99.90;;;;;;4984122;28;20090;-84
2022/10/14 00:12:07;;;;;;;4.40;3.40;;;12.40;99.90;;;;;;4984902;28;20512;-82
2022/10/14 00:14:33;;;;;;;4.85;3.58;;;12.40;99.90;;;;;;4988526;28;20019;-80
2022/10/14 00:17:14;;;;;;;3.63;3.33;;;12.40;99.90;;;;;;4995796;28;20023;-80
2022/10/14 00:19:40;;;;;;;4.95;3.80;;;12.40;99.90;;;;;;4973914;28;20054;-83
2022/10/14 00:22:05;;;;;;;5.55;3.80;;;12.50;99.90;;;;;;4975870;28;20023;-81
2022/10/14 00:24:40;;;;;;;4.68;3.53;;;12.50;99.90;;;;;;4972345;28;20057;-83
2022/10/14 00:27:09;;;;;;;3.90;3.38;;;12.50;99.90;;;;;;4973897;28;20027;-82
2022/10/14 00:29:35;;;;;;;5.35;3.85;;;12.50;99.90;;;;;;4964275;28;20391;-83
2022/10/14 00:32:01;;;;;;;4.93;3.50;;;12.50;99.90;;;;;;4981231;28;20023;-82
2022/10/14 00:34:26;;;;;;;4.85;3.22;;;12.40;99.90;;;;;;4981470;28;20049;-84
2022/10/14 00:36:52;;;;;;;4.68;3.10;;;12.40;99.90;;;;;;4964360;28;20097;-83
2022/10/14 00:39:18;;;;;;;4.80;2.85;;;12.40;99.90;;;;;;4981941;28;20037;-82
2022/10/14 00:41:44;;;;;;;3.72;2.72;;;12.40;99.90;;;;;;4963911;28;20027;-83
2022/10/14 00:44:09;;;;;;;4.10;2.50;;;12.50;99.90;;;;;;4981405;28;20033;-83
2022/10/14 00:46:54;;;;;;;2.42;2.22;;;12.40;99.90;;;;;;4982198;28;20109;-82
2022/10/14 00:49:37;;;;;;;3.40;1.98;;;12.40;99.90;;;;;;4980482;28;20415;-82
2022/10/14 00:52:12;;;;;;;2.78;2.20;;;12.40;99.90;;;;;;4947479;28;20042;-83
2022/10/14 00:54:43;;;;;;;2.25;2.00;;;12.40;99.90;;;;;;4980058;28;20019;-82
2022/10/14 00:57:10;;;;;;;2.90;2.60;;;12.40;99.90;;;;;;4979838;28;20031;-81
2022/10/14 00:59:36;;;;;;;4.22;2.67;;;12.40;99.90;;;;;;4983797;28;20027;-83
2022/10/14 01:02:02;;;;;;;2.95;2.60;;;12.40;99.90;;;;;;4983123;28;20046;-83
2022/10/14 01:04:27;;;;;;;2.17;1.90;;;12.40;99.90;;;;;;4980401;28;20023;-83
2022/10/14 01:07:08;;;;;;;3.35;2.30;;;12.40;99.90;;;;;;4962725;28;20103;-83
2022/10/14 01:09:57;;;;;;;3.03;2.67;;;12.40;99.90;;;;;;4979521;28;20102;-83
2022/10/14 01:12:54;;;;;;;3.53;2.63;;;12.40;99.90;;;;;;4979796;28;20188;-84
2022/10/14 01:15:39;;;;;;;3.38;2.65;;;12.40;99.90;;;;;;4978971;28;20364;-82
2022/10/14 01:18:36;;;;;;;3.85;2.60;;;12.30;99.90;;;;;;4961286;28;20037;-83
2022/10/14 01:21:20;;;;;;;2.97;2.65;;;12.30;99.90;;;;;;4982146;28;20300;-83
2022/10/14 01:24:10;;;;;;;2.83;2.63;;;12.40;99.90;;;;;;4963043;28;20089;-82
2022/10/14 01:27:15;;;;;;;3.45;2.58;;;12.30;99.90;;;;;;4979657;28;20034;-81
2022/10/14 01:29:50;;;;;;;3.63;2.80;;;12.40;99.90;;;;;;4986638;28;20057;-82
2022/10/14 01:32:39;;;;;;;8.40;2.85;;;12.30;99.90;;;;;;4973047;28;20044;-80
2022/10/14 01:35:07;;;;;;;5.97;3.00;;;12.30;99.90;;;;;;4995320;28;20023;-79
2022/10/14 01:37:37;;;;;;;3.58;2.40;;;12.30;99.90;;;;;;4969589;28;20023;-81
2022/10/14 01:40:13;;;;;;;4.10;2.50;;;12.30;99.90;;;;;;4994981;28;20019;-81
2022/10/14 01:42:41;;;;;;;2.90;2.08;;;12.40;99.90;;;;;;4977229;28;20094;-79
2022/10/14 01:45:20;;;;;;;2.67;2.05;;;12.40;99.90;;;;;;4991078;28;20033;-80
2022/10/14 01:47:53;;;;;;;3.63;1.88;;;12.40;99.90;;;;;;4992538;28;20019;-81
2022/10/14 01:50:22;;;;;;;2.65;1.80;;;12.40;99.90;;;;;;4981503;28;20133;-80
2022/10/14 01:53:10;;;;;;;5.80;1.90;;;12.30;99.90;;;;;;4975498;28;20034;-80
2022/10/14 01:55:42;;;;;;;1.70;1.60;;;12.30;99.90;;;;;;4943442;28;20333;-81
2022/10/14 01:58:10;;;;;;;2.80;1.70;;;12.40;99.90;;;;;;4976897;28;20106;-82
2022/10/14 02:01:15;;;;;;;3.22;1.40;;;12.40;99.90;;;;;;4963926;28;20027;-81
2022/10/14 02:03:45;;;;;;;5.53;1.60;;;12.30;99.90;;;;;;4974649;28;20295;-81
2022/10/14 02:06:19;;;;;;;2.35;1.30;;;12.30;99.90;;;;;;4976590;28;20011;-83
2022/10/14 02:09:05;;;;;;;2.22;1.30;;;12.20;99.90;;;;;;4996191;28;20054;-83
2022/10/14 02:11:46;;;;;;;1.83;1.55;;;12.30;99.90;;;;;;4996174;28;20082;-84
2022/10/14 02:14:31;;;;;;;2.97;1.30;;;12.20;99.90;;;;;;4997960;28;20043;-83
2022/10/14 02:17:03;;;;;;;2.20;1.45;;;12.30;99.90;;;;;;4999499;28;20019;-84
2022/10/14 02:19:46;;;;;;;2.35;1.70;;;12.20;99.90;;;;;;4982932;28;20094;-83
2022/10/14 02:22:36;;;;;;;2.78;1.63;;;12.20;99.90;;;;;;4998062;28;20019;-84
2022/10/14 02:25:08;;;;;;;2.72;1.52;;;12.20;99.90;;;;;;4979411;28;20023;-82
2022/10/14 02:27:35;;;;;;;2.95;1.73;;;12.10;99.90;;;;;;4994613;28;20026;-80
2022/10/14 02:30:03;;;;;;;4.40;2.00;;;12.10;99.90;;;;;;4990736;28;20030;-82
2022/10/14 02:32:30;;;;;;;2.42;1.73;;;12.10;99.90;;;;;;4965641;28;20026;-81
2022/10/14 02:35:08;;;;;;;3.47;2.00;;;12.10;99.90;;;;;;4981177;28;20019;-81
2022/10/14 02:37:52;;;;;;;1.80;1.70;;;12.00;99.90;;;;;;4976131;28;20019;-82
2022/10/14 02:40:27;;;;;;;3.67;2.20;;;12.10;99.90;;;;;;4959264;29;20093;-82
2022/10/14 02:42:53;;;;;;;2.00;1.63;;;12.10;99.90;;;;;;4942279;29;20058;-82
2022/10/14 02:45:19;;;;;;;1.90;1.55;;;12.00;99.90;;;;;;4962042;28;20031;-81
2022/10/14 02:47:46;;;;;;;2.13;1.92;;;12.00;99.90;;;;;;4978424;28;20023;-81
2022/10/14 02:50:12;;;;;;;2.72;1.50;;;12.00;99.90;;;;;;4978814;28;20027;-81
2022/10/14 02:52:38;;;;;;;2.10;1.90;;;12.00;99.90;;;;;;4978271;28;20026;-81
2022/10/14 02:55:04;;;;;;;1.92;1.52;;;12.00;99.90;;;;;;5000143;22;20603;-84
2022/10/14 02:57:29;;;;;;;1.40;1.30;;;12.10;99.90;;;;;;4988502;28;20141;-81
2022/10/14 02:59:55;;;;;;;7.00;1.58;;;12.10;99.90;;;;;;5021124;28;20030;-83
2022/10/14 03:02:21;;;;;;;2.83;1.75;;;12.00;99.90;;;;;;5030422;28;20029;-78
2022/10/14 03:04:46;;;;;;;1.67;1.58;;;12.10;99.90;;;;;;5003860;28;20034;-84
2022/10/14 03:07:12;;;;;;;3.35;1.77;;;12.00;99.90;;;;;;5011166;28;20556;-82
2022/10/14 03:09:41;;;;;;;3.83;2.03;;;12.10;99.90;;;;;;5016066;28;20022;-83
2022/10/14 03:12:06;;;;;;;1.98;1.50;;;12.10;99.90;;;;;;5018901;28;20041;-81
2022/10/14 03:14:32;;;;;;;4.15;1.70;;;12.00;99.90;;;;;;5022941;28;20026;-84
2022/10/14 03:16:57;;;;;;;2.33;1.60;;;12.10;99.90;;;;;;5003559;28;20019;-85
2022/10/14 03:19:23;;;;;;;3.05;1.60;;;12.10;99.90;;;;;;5001683;28;20022;-83
2022/10/14 03:21:49;;;;;;;5.97;1.70;;;12.10;99.90;;;;;;5002586;28;20396;-83
2022/10/14 03:24:15;;;;;;;4.20;1.90;;;12.10;99.90;;;;;;5020556;28;20133;-83
2022/10/14 03:26:41;;;;;;;4.10;1.33;;;12.10;99.90;;;;;;5020936;28;20068;-83
2022/10/14 03:29:06;;;;;;;3.35;2.40;;;12.10;99.90;;;;;;5014218;28;20088;-84
2022/10/14 03:31:32;;;;;;;4.15;2.00;;;12.10;99.90;;;;;;5019227;28;20339;-84
2022/10/14 03:33:58;;;;;;;3.40;1.85;;;12.10;99.90;;;;;;5019450;28;20037;-84
2022/10/14 03:36:23;;;;;;;2.78;1.85;;;12.10;99.90;;;;;;5019038;28;20115;-84
2022/10/14 03:38:49;;;;;;;5.10;2.20;;;12.10;99.90;;;;;;5003825;28;20021;-84
2022/10/14 03:41:15;;;;;;;5.30;1.80;;;12.10;99.90;;;;;;5021674;28;20447;-84
2022/10/14 03:43:40;;;;;;;8.52;2.20;;;12.10;99.90;;;;;;5009764;28;20045;-81
2022/10/14 03:46:06;;;;;;;2.75;1.98;;;12.10;99.90;;;;;;5007396;28;20053;-83
2022/10/14 03:48:31;;;;;;;2.97;1.92;;;12.10;99.90;;;;;;5017236;28;20486;-80
2022/10/14 03:50:57;;;;;;;2.47;1.95;;;12.10;99.90;;;;;;5035356;28;20026;-85
2022/10/14 03:53:23;;;;;;;3.13;2.45;;;12.10;99.90;;;;;;5027363;28;20041;-84
2022/10/14 03:55:49;;;;;;;2.20;2.00;;;12.10;99.90;;;;;;5028231;28;20097;-81
2022/10/14 03:58:14;;;;;;;2.28;2.08;;;12.10;99.90;;;;;;5015688;28;20042;-81
2022/10/14 04:00:40;;;;;;;2.15;1.98;;;12.10;99.90;;;;;;5016619;28;20022;-80
2022/10/14 04:03:05;;;;;;;2.00;1.90;;;12.20;99.90;;;;;;5014922;28;20030;-82
2022/10/14 04:05:33;;;;;;;4.45;2.15;;;12.20;99.90;;;;;;5033313;28;20022;-82
2022/10/14 04:08:00;;;;;;;2.58;1.67;;;12.20;99.90;;;;;;5025781;28;20026;-82
2022/10/14 04:10:26;;;;;;;1.85;1.70;;;12.20;99.90;;;;;;5019172;28;20026;-83
2022/10/14 04:12:55;;;;;;;2.95;1.83;;;12.20;99.90;;;;;;5020509;28;20029;-83
2022/10/14 04:15:21;;;;;;;3.33;1.90;;;12.20;99.90;;;;;;5001703;28;20458;-84
2022/10/14 04:17:47;;;;;;;3.42;1.92;;;12.20;99.90;;;;;;5019772;28;20018;-82
2022/10/14 04:20:14;;;;;;;2.97;2.20;;;12.20;99.90;;;;;;5019606;28;20064;-84
2022/10/14 04:22:40;;;;;;;2.03;1.92;;;12.20;99.90;;;;;;5022875;28;20228;-82
2022/10/14 04:25:06;;;;;;;2.78;2.58;;;12.20;99.90;;;;;;5024333;28;20029;-84
2022/10/14 04:27:32;;;;;;;1.83;1.70;;;12.20;99.90;;;;;;5024915;28;20041;-84
2022/10/14 04:29:58;;;;;;;2.85;1.90;;;12.20;99.90;;;;;;5024796;28;20026;-83
2022/10/14 04:32:24;;;;;;;2.72;1.88;;;12.20;99.90;;;;;;5024912;28;20025;-83
2022/10/14 04:34:49;;;;;;;2.08;1.90;;;12.20;99.90;;;;;;5020913;28;20526;-85
2022/10/14 04:37:15;;;;;;;2.60;1.88;;;12.20;99.90;;;;;;5022609;28;20030;-83
2022/10/14 04:39:41;;;;;;;3.58;1.98;;;12.20;99.90;;;;;;5002111;28;20498;-82
2022/10/14 04:42:06;;;;;;;1.70;1.60;;;12.20;99.90;;;;;;5021058;28;20029;-83
2022/10/14 04:44:32;;;;;;;1.45;1.33;;;12.20;99.90;;;;;;5019988;28;20021;-84
2022/10/14 04:46:58;;;;;;;2.40;1.70;;;12.20;99.90;;;;;;5019117;28;20021;-83
2022/10/14 04:49:23;;;;;;;4.75;2.05;;;12.10;99.90;;;;;;5021810;28;20065;-85
2022/10/14 04:51:49;;;;;;;2.13;1.70;;;12.20;99.90;;;;;;5013516;28;20034;-82
2022/10/14 04:54:15;;;;;;;2.35;1.83;;;12.20;99.90;;;;;;4991999;28;20117;-84
2022/10/14 04:56:40;;;;;;;2.42;1.75;;;12.10;99.90;;;;;;5014354;28;20090;-84
2022/10/14 04:59:06;;;;;;;2.80;1.98;;;12.10;99.90;;;;;;5000452;28;20045;-84
2022/10/14 05:01:32;;;;;;;2.63;1.70;;;12.10;99.90;;;;;;4999780;28;20030;-83
2022/10/14 05:03:58;;;;;;;2.33;1.80;;;12.10;99.90;;;;;;5001460;28;20097;-83
2022/10/14 05:06:25;;;;;;;2.30;1.80;;;12.10;99.90;;;;;;5010791;28;20021;-84
2022/10/14 05:08:50;;;;;;;3.75;1.75;;;12.10;99.90;;;;;;5010048;28;20093;-82
2022/10/14 05:11:16;;;;;;;2.30;1.75;;;12.10;99.90;;;;;;5002351;28;20126;-79
2022/10/14 05:13:41;;;;;;;1.58;1.40;;;12.00;99.90;;;;;;5000041;28;20113;-82
2022/10/14 05:16:07;;;;;;;1.92;1.80;;;12.00;99.90;;;;;;4999413;28;20022;-84
2022/10/14 05:18:33;;;;;;;1.50;1.40;;;12.00;99.90;;;;;;5005519;28;20034;-83
2022/10/14 05:20:59;;;;;;;2.83;1.80;;;12.10;99.90;;;;;;5004812;28;20080;-83
2022/10/14 05:23:25;;;;;;;2.55;1.70;;;12.10;99.90;;;;;;5000367;28;20026;-85
2022/10/14 05:25:51;;;;;;;1.83;1.73;;;12.10;99.90;;;;;;5007034;28;20516;-83
2022/10/14 05:28:17;;;;;;;2.70;1.70;;;12.10;99.90;;;;;;5002137;28;20030;-83
2022/10/14 05:30:43;;;;;;;2.08;1.52;;;12.10;99.90;;;;;;5021704;28;20014;-83
2022/10/14 05:33:09;;;;;;;2.75;1.67;;;12.10;99.90;;;;;;5022301;28;20040;-82
2022/10/14 05:35:36;;;;;;;3.25;1.60;;;12.10;99.90;;;;;;5021458;28;20022;-84
2022/10/14 05:38:02;;;;;;;2.35;1.65;;;12.10;99.90;;;;;;5013631;28;20076;-85
2022/10/14 05:40:28;;;;;;;2.17;1.80;;;12.20;99.90;;;;;;5007382;28;20029;-82
2022/10/14 05:42:54;;;;;;;2.03;1.80;;;12.20;99.90;;;;;;5026930;28;20022;-79
2022/10/14 05:45:19;;;;;;;2.38;1.48;;;12.20;99.90;;;;;;5013967;28;20033;-79
2022/10/14 05:47:45;;;;;;;1.73;1.55;;;12.20;99.90;;;;;;4999539;28;20011;-79
2022/10/14 05:50:12;;;;;;;3.88;1.60;;;12.20;99.90;;;;;;5018356;28;20045;-79
2022/10/14 05:52:39;;;;;;;2.83;2.03;;;12.20;99.90;;;;;;5019045;28;20018;-78
2022/10/14 05:55:06;;;;;;;3.08;2.10;;;12.20;99.90;;;;;;5019972;28;20022;-85
2022/10/14 05:57:33;;;;;;;1.80;1.70;;;12.20;99.90;;;;;;5023173;28;20092;-83
2022/10/14 06:00:00;;;;;;;1.60;1.50;;;12.20;99.90;;;;;;5004600;28;20034;-84
2022/10/14 06:02:26;;;;;;;5.03;2.00;;;12.20;99.90;;;;;;5020998;28;20029;-79
2022/10/14 06:04:51;;;;;;;1.85;1.75;;;12.30;99.90;;;;;;4996996;28;20061;-84
2022/10/14 06:07:17;;;;;;;1.95;1.75;;;12.30;99.90;;;;;;5000807;28;20049;-83
2022/10/14 06:09:43;;;;;;;1.60;1.50;;;12.20;99.90;;;;;;5019567;28;20046;-84
2022/10/14 06:12:09;;;;;;;1.48;1.20;;;12.30;99.90;;;;;;5004679;28;20041;-84
2022/10/14 06:14:37;;;;;;;2.08;1.50;;;12.30;99.90;;;;;;5019956;28;20030;-84
2022/10/14 06:17:04;;;;;;;3.15;1.70;;;12.30;99.90;;;;;;5019972;28;20034;-83
2022/10/14 06:19:31;;;;;;;2.05;1.73;;;12.40;99.90;;;;;;5002750;28;20038;-87
2022/10/14 06:21:57;;;;;;;1.90;1.63;;;12.40;99.90;;;;;;5024626;28;20033;-85
2022/10/14 06:24:23;;;;;;;3.45;1.90;;;12.50;99.90;;;;;;5003434;28;20037;-83
2022/10/14 06:26:48;;;;;;;1.95;1.67;;;12.50;99.90;;;;;;5023921;28;20033;-83
2022/10/14 06:29:15;;;;;;;1.92;1.83;;;12.50;99.90;;;;;;5006514;28;20022;-83
2022/10/14 06:31:40;;;;;;;2.55;2.35;;;12.60;99.90;;;;;;5025109;28;20479;-82
2022/10/14 06:34:07;;;;;;;4.10;2.25;;;12.60;99.90;;;;;;5002503;28;20036;-80
2022/10/14 06:36:33;;;;;;;2.58;1.98;;;12.70;99.90;;;;;;4994683;28;20022;-79
2022/10/14 06:38:58;;;;;;;2.17;1.90;;;12.70;99.90;;;;;;5005983;28;20173;-79
2022/10/14 06:41:24;;;;;;;2.35;1.80;;;12.70;99.90;;;;;;5023759;28;20045;-82
2022/10/14 06:43:49;;;;;;;6.07;2.42;;;12.70;99.90;;;;;;5020669;28;20342;-82
2022/10/14 06:46:15;;;;;;;2.05;1.63;;;12.80;99.90;;;;;;5022443;28;20034;-83
2022/10/14 06:48:41;;;;;;;1.98;1.60;;;12.90;99.90;;;;;;5021430;28;20026;-83
2022/10/14 06:51:08;;;;;;;2.38;1.80;;;13.00;99.90;;;;;;5004551;28;20026;-83
2022/10/14 06:53:33;;;;;;;2.13;1.35;;;13.10;99.90;;;;;;5020463;28;20050;-84
2022/10/14 06:56:05;;;;;;;1.88;1.60;;;13.10;99.90;;;;;;5014788;28;20521;-83
2022/10/14 06:58:31;;;;;;;3.73;2.30;;;13.20;99.90;;;;;;5003672;28;20429;-83
2022/10/14 07:01:04;;;;;;;1.92;1.50;;;13.30;99.90;;;;;;5021488;28;20022;-82
2022/10/14 07:03:30;;;;;;;2.30;1.13;;;13.40;99.90;;;;;;5006205;28;20022;-81
2022/10/14 07:05:56;;;;;;;0.82;0.80;;;13.40;99.90;;;;;;4999276;28;20113;-84
2022/10/14 07:08:21;;;;;;;1.73;1.50;;;13.50;99.90;;;;;;5011274;28;20177;-83
2022/10/14 07:10:47;;;;;;;1.30;1.20;;;13.60;99.90;;;;;;5021585;28;20038;-84
2022/10/14 07:13:13;;;;;;;1.92;1.65;;;13.60;99.90;;;;;;5022284;28;20072;-81
2022/10/14 07:15:39;;;;;;;2.22;1.45;;;13.60;99.90;;;;;;5023844;28;20026;-83
2022/10/14 07:18:06;;;;;;;1.50;1.40;;;13.70;99.90;;;;;;5019950;28;20042;-82
2022/10/14 07:20:33;;;;;;;3.30;1.20;;;13.70;99.90;;;;;;5020297;28;20068;-83
2022/10/14 07:22:59;;;;;;;2.97;2.40;;;13.60;99.90;;;;;;5021279;28;20018;-82
2022/10/14 07:25:24;;;;;;;1.50;1.17;;;13.60;99.90;;;;;;5021580;28;20036;-83
2022/10/14 07:27:52;;;;;;;1.30;1.20;;;13.70;99.90;;;;;;5023502;28;20042;-82
2022/10/14 07:30:18;;;;;;;1.40;1.10;;;13.70;99.90;;;;;;5021406;28;20127;-83
2022/10/14 07:32:43;;;;;;;2.50;1.67;;;13.80;99.90;;;;;;5021739;28;20030;-84
2022/10/14 07:35:09;;;;;;;1.23;1.13;;;13.90;99.90;;;;;;5014072;28;20034;-84
2022/10/14 07:37:35;;;;;;;1.67;1.40;;;14.10;99.90;;;;;;5022705;28;20034;-82
2022/10/14 07:40:00;;;;;;;2.17;1.58;;;14.30;99.90;;;;;;5010098;28;20034;-84
2022/10/14 07:42:26;;;;;;;1.35;1.08;;;14.40;99.90;;;;;;4995230;28;20022;-83
2022/10/14 07:44:53;;;;;;;1.55;1.15;;;14.50;99.90;;;;;;5007197;28;20049;-84
2022/10/14 07:47:54;;;;;;;1.70;1.25;;;14.50;99.90;;;;;;5006913;28;20029;-85
2022/10/14 07:50:19;;;;;;;1.05;1.05;;;14.50;99.90;;;;;;5032839;28;20025;-83
2022/10/14 07:52:45;;;;;;;1.33;1.23;;;14.50;99.90;;;;;;5032939;28;20034;-84
2022/10/14 07:55:11;;;;;;;1.20;1.17;;;14.50;99.90;;;;;;5005949;28;20041;-84
2022/10/14 07:57:38;;;;;;;2.08;1.27;;;14.70;99.90;;;;;;5022788;28;20014;-84
2022/10/14 08:00:04;;;;;;;1.65;1.30;;;14.90;99.90;;;;;;5008116;28;20022;-83
2022/10/14 08:02:30;;;;;;;0.90;0.90;;;15.20;99.90;;;;;;5025145;28;20058;-85
2022/10/14 08:04:57;;;;;;;1.40;1.10;;;15.30;99.90;;;;;;5026920;28;20022;-82
2022/10/14 08:07:24;;;;;;;1.05;0.70;;;15.40;99.90;;;;;;5017727;28;20026;-84
2022/10/14 08:09:52;;;;;;;1.05;0.93;;;15.40;99.90;;;;;;5014316;28;20621;-83
2022/10/14 08:12:18;;;;;;;2.05;0.85;;;15.60;99.90;;;;;;5009427;28;20022;-83
2022/10/14 08:14:44;;;;;;;1.02;0.98;;;15.70;99.90;;;;;;5008506;28;20023;-78
2022/10/14 08:17:10;;;;;;;1.00;0.90;;;15.70;99.90;;;;;;5011375;28;20033;-78
2022/10/14 08:19:35;;;;;;;1.15;1.00;;;15.80;99.90;;;;;;5011686;28;20030;-79
2022/10/14 08:22:01;;;;;;;1.67;1.48;;;16.10;99.90;;;;;;5005406;28;20048;-82
2022/10/14 08:24:27;;;;;;;1.05;0.90;;;16.30;99.10;;;;;;5003707;28;20032;-85
2022/10/14 08:26:57;;;;;;;1.55;1.27;;;16.50;98.50;;;;;;5004242;28;20433;-82
2022/10/14 08:29:24;;;;;;;2.92;1.10;;;16.60;97.60;;;;;;5022399;28;20032;-85
2022/10/14 08:31:51;;;;;;;1.00;0.85;;;16.80;97.10;;;;;;5020348;28;20355;-84
2022/10/14 08:34:20;;;;;;;1.55;0.77;;;17.10;96.40;;;;;;5019877;28;20086;-85
2022/10/14 08:36:55;;;;;;;0.65;0.60;;;17.30;95.30;;;;;;4995125;28;20018;-83
2022/10/14 08:39:21;;;;;;;1.00;0.85;;;17.40;94.50;;;;;;5002109;28;20053;-83
2022/10/14 08:42:15;;;;;;;0.75;0.70;;;17.50;93.50;;;;;;5003139;28;20034;-85
2022/10/14 08:45:07;;;;;;;0.65;0.65;;;17.80;92.30;;;;;;5021023;28;20037;-84
2022/10/14 08:47:41;;;;;;;;;;;17.90;91.30;;;;;;5005041;28;20030;-85
2022/10/14 08:50:18;;;;;;;0.70;0.65;;;18.10;90.50;;;;;;5033562;28;19905;-82
2022/10/14 08:52:52;;;;;;;0.95;0.60;;;18.30;88.80;;;;;;5021134;28;20076;-84
2022/10/14 08:55:24;;;;;;;1.55;0.52;;;18.40;86.80;;;;;;5023470;28;20022;-80
2022/10/14 08:58:01;;;;;;;0.65;0.65;;;18.60;84.50;;;;;;5016789;28;20033;-80
2022/10/14 09:00:31;;;;;;;2.10;0.60;;;18.70;81.70;;;;;;5026392;28;20030;-80
2022/10/14 09:02:58;;;;;;;0.60;0.60;;;18.90;81.00;;;;;;5002129;28;20061;-81
2022/10/14 09:05:25;;;;;;;1.60;0.52;;;18.90;80.50;;;;;;5024872;28;20030;-79
2022/10/14 09:07:55;;;;;;;0.88;0.68;;;19.00;79.20;;;;;;5009720;28;20040;-79
2022/10/14 09:10:35;;;;;;;0.77;0.70;;;19.10;78.10;;;;;;5010227;28;20048;-81
2022/10/14 09:13:21;;;;;;;0.40;0.40;;;19.20;76.10;;;;;;5023569;28;20030;-80
2022/10/14 09:15:59;;;;;;;0.52;0.52;;;19.10;76.10;;;;;;5005250;28;20046;-79
2022/10/14 09:18:25;;;;;;;0.88;0.75;;;19.10;76.50;;;;;;5001038;28;20022;-81
2022/10/14 09:20:52;;;;;;;0.60;0.60;;;19.00;75.80;;;;;;4990162;28;20192;-81
2022/10/14 09:23:21;;;;;;;1.75;0.82;;;18.80;76.80;;;;;;5023142;28;20030;-81
2022/10/14 09:26:00;;;;;;;0.73;0.57;;;18.70;75.50;;;;;;5010065;28;20622;-82
2022/10/14 09:28:35;;;;;;;1.15;0.70;;;18.60;74.60;;;;;;5023007;28;20049;-81
2022/10/14 09:31:02;;;;;;;2.03;0.52;;;18.70;74.70;;;;;;4997965;28;20054;-81
2022/10/14 09:33:28;;;;;;;0.90;0.43;;;19.00;74.00;;;;;;4990205;28;20037;-81
2022/10/14 09:35:56;;;;;;;0.65;0.57;;;19.30;72.10;;;;;;5023048;28;20026;-80
2022/10/14 09:38:24;;;;;;;1.35;0.63;;;19.50;71.10;;;;;;5023475;28;20021;-81
2022/10/14 09:40:59;;;;;;;1.48;0.35;;;19.60;70.70;;;;;;5018599;28;20014;-82
2022/10/14 09:43:25;;;;;;;0.50;0.40;;;19.90;68.50;;;;;;5005149;28;20030;-81
2022/10/14 09:46:18;;;;;;;1.15;0.70;;;20.00;68.60;;;;;;5007673;28;20030;-79
2022/10/14 09:48:48;;;;;;;0.43;0.43;;;20.30;68.00;;;;;;5000644;28;20046;-81
2022/10/14 09:51:32;;;;;;;0.98;0.57;;;20.30;67.60;;;;;;5007493;28;20022;-81
2022/10/14 09:54:01;;;;;;;1.27;0.65;;;20.50;66.50;;;;;;5038528;28;20041;-80
2022/10/14 09:56:35;;;;;;;0.90;0.70;;;20.70;64.90;;;;;;5036262;28;20061;-80
2022/10/14 09:59:03;;;;;;;0.40;0.40;;;20.60;62.50;;;;;;5024290;28;20037;-81
2022/10/14 10:01:47;;;;;;;0.85;0.70;;;20.30;64.20;;;;;;5003122;28;20499;-80
2022/10/14 10:04:30;;;;;;;0.52;0.40;;;20.10;65.90;;;;;;5022797;28;20034;-82
2022/10/14 10:06:58;;;;;;;0.30;0.30;;;20.00;66.80;;;;;;5020193;28;20026;-81
2022/10/14 10:09:25;;;;;;;0.60;0.60;;;20.00;67.50;;;;;;5002764;28;20026;-81
2022/10/14 10:11:50;;;;;;;0.70;0.50;;;20.00;67.10;;;;;;5023312;28;20022;-81
2022/10/14 10:14:20;;;;;;;0.73;0.50;;;20.00;66.80;;;;;;5020600;28;20029;-81
2022/10/14 10:16:47;;;;;;;0.63;0.63;;;20.00;66.00;;;;;;5002297;28;20033;-80
2022/10/14 10:19:26;;;;;;;2.13;0.75;;;19.80;65.30;;;;;;5021249;28;20018;-80
2022/10/14 10:21:52;;;;;;;1.27;0.80;;;19.80;65.10;;;;;;5019400;28;20411;-80
2022/10/14 10:24:20;;;;;;;0.50;0.50;;;19.90;63.00;;;;;;5009769;28;20056;-80
2022/10/14 10:26:46;;;;;;;1.20;0.60;;;20.00;63.10;;;;;;5021021;28;20022;-79
2022/10/14 10:29:26;;;;;;;0.63;0.50;;;20.30;62.50;;;;;;5019088;28;20022;-82
2022/10/14 10:32:12;;;;;;;0.90;0.70;;;20.30;62.10;;;;;;4994818;28;20030;-82
2022/10/14 10:34:55;;;;;;;0.73;0.73;;;20.10;61.60;;;;;;5011276;28;20022;-79
2022/10/14 10:37:25;;;;;;;0.68;0.68;;;20.10;62.70;;;;;;5012716;28;20364;-78
2022/10/14 10:40:21;;;;;;;1.20;0.80;;;20.40;62.60;;;;;;5019980;28;20033;-78
2022/10/14 10:43:10;;;;;;;0.93;0.88;;;20.50;61.30;;;;;;5023070;28;20038;-79
2022/10/14 10:45:48;;;;;;;0.98;0.75;;;20.40;60.40;;;;;;5019411;28;20438;-78
2022/10/14 10:48:19;;;;;;;0.68;0.68;;;20.20;61.70;;;;;;5020292;28;20025;-78
2022/10/14 10:50:57;;;;;;;3.00;2.08;;;20.20;62.80;;;;;;5019661;28;20173;-78
2022/10/14 10:53:39;;;;;;;2.08;1.50;;;20.20;61.70;;;;;;5018672;28;20360;-80
2022/10/14 10:56:33;;;;;;;1.10;1.00;;;20.30;62.20;;;;;;5017729;28;20463;-79
2022/10/14 10:59:29;;;;;;;1.95;0.70;;;20.40;62.00;;;;;;5021357;28;20018;-79
2022/10/14 11:02:13;;;;;;;0.70;0.70;;;20.40;61.60;;;;;;5021662;28;20010;-79
2022/10/14 11:04:56;;;;;;;0.52;0.40;;;20.50;61.50;;;;;;5018729;28;20108;-78
2022/10/14 11:13:52;;;;;;;1.13;0.68;;;20.50;60.70;;;;;;4987589;28;20037;-78
2022/10/14 11:16:32;;;;;;;1.00;0.50;;;20.40;61.00;;;;;;5001812;28;20042;-78
2022/10/14 11:19:19;;;;;;;2.13;1.45;;;20.40;61.60;;;;;;5015059;28;20105;-78
2022/10/14 11:21:51;;;;;;;3.45;1.15;;;20.50;59.80;;;;;;5010969;28;20022;-78
2022/10/14 11:24:43;;;;;;;1.50;0.65;;;20.40;60.00;;;;;;4998237;28;20030;-77
2022/10/14 11:27:34;;;;;;;0.70;0.70;;;20.40;60.40;;;;;;5002186;28;20523;-81
2022/10/14 11:30:28;;;;;;;1.25;0.70;;;20.50;60.40;;;;;;5008989;28;20033;-78
2022/10/14 11:33:25;;;;;;;1.95;1.13;;;20.50;60.20;;;;;;5014500;28;20037;-77
2022/10/14 11:36:35;;;;;;;1.60;0.80;;;20.70;59.00;;;;;;4999157;28;20029;-78
2022/10/14 11:39:22;;;;;;;0.60;0.60;;;20.80;59.20;;;;;;5003871;28;20060;-80
2022/10/14 11:42:12;;;;;;;0.85;0.60;;;20.90;58.70;;;;;;5020343;28;20045;-81
2022/10/14 11:44:41;;;;;;;0.50;0.43;;;21.00;59.00;;;;;;4999138;28;20030;-79
2022/10/14 11:47:22;;;;;;;0.63;0.57;;;20.90;59.50;;;;;;5017327;28;20022;-77
2022/10/14 11:50:13;;;;;;;0.52;0.52;;;20.90;60.20;;;;;;5002654;28;20040;-78
2022/10/14 11:52:51;;;;;;;2.28;0.52;;;21.00;60.30;;;;;;5022025;28;20092;-78
2022/10/14 11:55:22;;;;;;;0.82;0.60;;;20.90;60.70;;;;;;5018110;28;20030;-81
2022/10/14 11:58:04;;;;;;;1.67;1.00;;;20.90;59.90;;;;;;5014321;28;20026;-80
2022/10/14 12:00:37;;;;;;;1.40;1.20;;;20.90;59.50;;;;;;5018739;28;20093;-80
2022/10/14 12:03:38;;;;;;;1.63;1.00;;;20.90;60.10;;;;;;5008590;28;20061;-80
2022/10/14 12:06:14;;;;;;;0.60;0.60;;;20.90;60.40;;;;;;5009230;28;20483;-80
2022/10/14 12:08:54;;;;;;;0.55;0.55;;;20.90;60.10;;;;;;5017291;28;20046;-79
2022/10/14 12:11:32;;;;;;;0.65;0.63;;;20.90;59.30;;;;;;5018356;28;20044;-81
2022/10/14 12:14:22;;;;;;;0.60;0.52;;;20.90;59.60;;;;;;4999961;28;20029;-80
2022/10/14 12:16:49;;;;;;;0.60;0.60;;;20.90;60.20;;;;;;4993274;28;20089;-80
2022/10/14 12:19:23;;;;;;;1.67;0.90;;;21.00;60.50;;;;;;5007713;28;20018;-79
2022/10/14 12:22:15;;;;;;;0.55;0.50;;;21.00;60.10;;;;;;4981475;28;20026;-78
2022/10/14 12:24:47;;;;;;;0.90;0.80;;;20.90;60.80;;;;;;4983750;28;20045;-80
2022/10/14 12:27:13;;;;;;;;;;;20.90;61.20;;;;;;4991737;28;20026;-80
2022/10/14 12:29:44;;;;;;;2.42;0.80;;;20.90;61.30;;;;;;4988065;28;19964;-78
2022/10/14 12:32:21;;;;;;;0.93;0.70;;;20.80;61.50;;;;;;5010282;28;20042;-79
2022/10/14 12:34:55;;;;;;;1.25;0.73;;;20.60;61.60;;;;;;5005372;28;20030;-80
2022/10/14 12:37:23;;;;;;;1.02;0.77;;;20.50;61.70;;;;;;4990247;28;20030;-79
2022/10/14 12:40:12;;;;;;;0.77;0.68;;;20.50;62.10;;;;;;4992741;28;20431;-80
2022/10/14 12:42:56;;;;;;;2.53;1.40;;;20.40;62.40;;;;;;5001161;28;20100;-79
2022/10/14 12:45:24;;;;;;;1.23;0.68;;;;;;;;;;5009594;28;20018;-80
2022/10/14 12:48:14;;;;;;;1.08;0.60;;;20.10;62.50;;;;;;5019054;28;20034;-79
2022/10/14 12:50:42;;;;;;;1.08;0.77;;;20.00;63.70;;;;;;5018123;28;20332;-79
2022/10/14 12:53:30;;;;;;;0.98;0.65;;;19.90;64.80;;;;;;5015673;28;20237;-78
2022/10/14 12:56:00;;;;;;;0.85;0.75;;;19.80;65.40;;;;;;5012611;28;20035;-79
2022/10/14 12:58:53;;;;;;;0.65;0.65;;;19.80;65.90;;;;;;5004885;28;20479;-79
2022/10/14 13:01:20;;;;;;;0.65;0.60;;;19.90;65.90;;;;;;4992479;28;20057;-80
2022/10/14 13:03:55;;;;;;;3.22;0.70;;;19.80;65.70;;;;;;5018260;28;20097;-78
2022/10/14 13:06:39;;;;;;;1.65;0.65;;;19.80;65.40;;;;;;5002223;28;20140;-79
2022/10/14 13:09:10;;;;;;;0.50;0.50;;;19.80;65.30;;;;;;5017040;28;20032;-80
2022/10/14 13:11:40;;;;;;;0.98;0.73;;;19.70;65.20;;;;;;5017362;28;20081;-79
2022/10/14 13:14:28;;;;;;;1.00;0.77;;;19.60;65.40;;;;;;5007865;28;20476;-79
2022/10/14 13:16:59;;;;;;;0.80;0.80;;;19.60;65.70;;;;;;5009646;28;20483;-80
2022/10/14 13:19:35;;;;;;;1.65;0.80;;;19.60;65.90;;;;;;5005973;28;20026;-81